Skip Navigation Links
NOAA logo - Click to go to the NOAA homepage
NOAA's National Weather Service
Alaska Aviation Weather Unit
  NWS logo - Click to go to the NWS homepage
Left Navbar Graphic     12 AKDT = 20 GMT

   
NOAA is celebrating 200 years of science, service, and stewardship. Visit the NOAA 200th celebration Web site to learn more.
USA.gov is the U.S. Government's official Web portal to all Federal, state and local government Web resources and services.
Facebook
NWS on Facebook

Important Change Regarding the AAWU Web Presence

 

Over the last several months, the AAWU has been working to navigate its webpages to a nationally supported server. Security, as well as other needs, have necessitated the change.  We have been given an extension for the site changeover while we diligently work at addressing feedback received. As of July 14, 2017, aawu.arh.noaa.gov will be discontinued. The new AAWU web address is weather.gov/aawu. It is now live and will run in-parallel with the old site until it is discontinued on July 14, 2017. Please continue to send any feedback or questions regarding the new webpages to nws.ar.aawu.webauthors@noaa.gov.  Thank you for your patience during this time of transition.
AAWU Home :: Display TAF Add Bookmark
TAF PABR 251739Z 2518/2618 25007KT 1/4SM FG VV003
      TEMPO 2518/2519 1SM BR BKN003
     FM251900 22005KT 2SM BR SCT003 BKN007
     FM252000 22005KT 4SM BR SCT003 OVC007
     FM252200 34004KT 5SM BR OVC007
     FM260200 03007KT P6SM OVC007
     FM261300 05004KT 1SM BR OVC005=
PABR 251405Z 25008KT 10SM BKN028 BKN047 OVC055 06/05 A2991=

SPECI PABR 251405Z 25008KT 10SM BKN028 BKN047 OVC055 06/05 A2991 RMK AO2
     RAE02 P0000 T00610050=

PABR 251411Z 25009KT 10SM FEW005 SCT028 OVC055 06/05 A2991=

SPECI PABR 251411Z 25009KT 10SM FEW005 SCT028 OVC055 06/05 A2991 RMK AO2
     RAE02 CIG 028 NE P0000 T00610050=

PABR 251424Z 25008KT 10SM FEW005 BKN028 OVC055 06/05 A2992=

SPECI PABR 251424Z 25008KT 10SM FEW005 BKN028 OVC055 06/05 A2992 RMK AO2
     RAE02 P0000 T00610050=

PABR 251451Z 26009KT 10SM SCT006 BKN010 OVC024 06/06 A2992=

SPECI PABR 251451Z 26009KT 10SM SCT006 BKN010 OVC024 06/06 A2992 RMK AO2
     RAE02 CIG 005 NE P0000=

PABR 251453Z 26009KT 10SM SCT005 BKN010 OVC024 06/06 A2992=

PABR 251502Z 26008KT 10SM BKN006 OVC011 06/06 A2992=

PABR 251502Z 26008KT 10SM BKN006 OVC011 06/06 A2992 RMK AO2
     T00610056=

PABR 251549Z 25008KT 10SM OVC004 06/06 A2992=

SPECI PABR 251549Z 25008KT 10SM OVC004 06/06 A2992 RMK AO2=

PABR 251553Z 25008KT 10SM OVC004 06/06 A2992=

PABR 251631Z 26007KT 1 3/4SM R07/5500VP6000FT BR OVC002 06/06
A2993=

SPECI PABR 251631Z 26007KT 1 3/4SM R07/5500VP6000FT BR OVC002 06/06
     A2993 RMK AO2 T00610056=

PABR 251639Z 25008KT 1/2SM R07/2800VP6000FT FG OVC003 06/06 A2993=

SPECI PABR 251639Z 25008KT 1/2SM R07/2800VP6000FT FG OVC003 06/06 A2993
     RMK AO2 T00610056=

PABR 251653Z 25007KT 1/4SM R07/2400V3000FT FG VV003 06/06
     A2993=

PABR 251732Z 26008KT 1/2SM R07/2800V5000FT FG OVC002 06/06 A2993=

SPECI PABR 251732Z 26008KT 1/2SM R07/2800V5000FT FG OVC002 06/06 A2993
     RMK AO2 T00610056=

PABR 251753Z 26007KT 1/2SM R07/2000V5000FT FG VV003 06/06
     A2993=

PABR 251831Z 29009KT 1/4SM R07/1200V2000FT FG VV002 06/05 A2994=

SPECI PABR 251831Z 29009KT 1/4SM R07/1200V2000FT FG VV002 06/05 A2994
     RMK AO2 T00560050=

PABR 251838Z 30009KT 1/4SM R07/1800V4500FT FG VV002 05/05 A2994=

PABR 251838Z 30009KT 1/4SM R07/1800V4500FT FG VV002 05/05 A2994
     RMK AO2 T00500050=

PABR 251849Z 30008KT 3/4SM R07/3500V5000FT BR VV003 05/05 A2994=

SPECI PABR 251849Z 30008KT 3/4SM R07/3500V5000FT BR VV003 05/05 A2994
     RMK AO2=

PABR 251853Z 30008KT 3/4SM R07/3500V5000FT BR VV003 05/04
     A2994=

PABR 251905Z 31007KT 1/2SM R07/2200V3500FT FG VV003 05/04 A2995=

SPECI PABR 251905Z 31007KT 1/2SM R07/2200V3500FT FG VV003 05/04
 A2995 RMK AO2 T00500044=

PABR 251926Z 31006KT 1SM R07/3000VP6000FT BR VV003 04/04 A2995=

SPECI PABR 251926Z 31006KT 1SM R07/3000VP6000FT BR VV003 04/04 A2995 RMK
     AO2 T00440044=

PABR 251937Z 32007KT 2SM R07/5500VP6000FT BR OVC002 04/04 A2995=

SPECI PABR 251937Z 32007KT 2SM R07/5500VP6000FT BR OVC002 04/04 A2995
     RMK AO2 VIS 1V5 T00440044=

METAR PABR 251953Z 34008KT 3/4SM R07/3500V5500FT BR OVC002 04/04 A2995
     RMK AO2 SLP143 T00440039=

PABR 252002Z 34008KT 1SM R07/3500VP6000FT BR OVC002 04/04 A2996=

SPECI PABR 252002Z 34008KT 1SM R07/3500VP6000FT BR OVC002 04/04 A2996
     RMK AO2 T00440039=

PABR 252031Z 34008KT 2 1/2SM R07/5500VP6000FT BR OVC002 04/03
A2996=

SPECI PABR 252031Z 34008KT 2 1/2SM R07/5500VP6000FT BR OVC002 04/03
 A2996 RMK AO2 T00390033=


NOAA's National Weather Service
Alaska Aviation Weather Unit
6930 Sand Lake Road
Anchorage, AK 99502-1845
Disclaimer
Credits
Glossary
Privacy Policy
About Us
Career Opportunities
Contact AAWU Internet Services Site last modified: April, 17th 2012